KAFK Airport (Nebraska City Muni) Information

FAA: AFK - ICAO: KAFK

KAFK Airport Location

State Nebraska
County Otoe
City Nebraska City
KAFK Airport is 4 miles south of Nebraska City, NE.
Latitude 40-36-23.5000N
Longitude 095-52-00.0000W
Elevation 1,165ft

KAFK Airport METARs

METAR KAFK 262355Z AUTO 18006KT 10SM CLR 08/M03 A2989 RMK AO2 T00771030 10140 20072
Altimeter 29.89"
Temperature 7.7°C (45.9°F)
Wind 180° at 6KT
Clouds Skies are clear.
Visibility 10.0mi
Time observed: 2021-11-26T23:55:00Z

KAFK Airport Details

Status Operational
Activation N/A
Ownership Public
Usage Public
Chart OMAHA
ATC on-site No
Beacon schedule sunset-sunrise
Beacon color clear green

KAFK Airport Contacts

Owner CITY OF NEBRASKA CITY
Owner address 1409 CENTRAL AVE, NEBRASKA CITY, NE 68410-2223
Owner phone (402) 873-5515
Manager MIKE KING
Manager address 635 O STREET, LOUP CITY, NE 68853
Manager phone 308-745-1244

KAFK Airport (Nebraska City Muni) Radio Frequencies

KAFK (Airport) Radio Frequencies

UNICOM 122.7
Common traffic advisory frequency (CTAF) 122.7